Kansas City, Missouri
Traffic Map
Current Weather Conditions
Kansas City, Missouri
Clear
Clear
32°
Feels Like: 39°
Wind Chill: 32° Ceiling: Unl
Heat Index: 39° Visibility: 10mi
Dew Point: 25° Wind: 7mph
Humidity: 67% Direction: 30° (NNE)
Pressure: 30.02in Gusts: 0mph
Raw Report DataKMKC 230254Z 03006KT 10SM CLR 32/25 A3002 RMK AO2 SLP157 T03170250 53015
Traffic Incident Summary
Active as of:
Severity:
Category:
InformationThere was an issue retrieving the traffic information for this location. Please try a different location or try again shortly.
Advertisements
Track Severe Weather on mobile